Terminal Aerodrome Forecast
Issued by NWS

Home | Current Version | Previous Version | Text Only | Print | Product List | Glossary On
Versions: 1 2 3 4 5 6 7 8 9 10 11 12 13 14 15 16 17 18 19 20
000
FTUS43 KMPX 231200 AAA
TAFRWF
TAF AMD
KRWF 231223Z 2312/2412 08005KT 4SM BR BKN003 OVC120
     FM231300 10009KT 4SM -SHRA BR SCT003 BKN015 OVC070
      TEMPO 2313/2315 2SM -SHRA BR BKN003 OVC015
     FM231500 12014G22KT P6SM SCT030 BKN080
     FM240300 13011KT P6SM VCTS SCT030CB BKN060
     FM240700 15010KT 4SM BR BKN100=

USA.gov is the U.S. government's official web portal to all federal, state and local government web resources and services.